PWSweather.com
Personal Weather Stations
Station Observations
JOE4SPEED
Jupiter, Fl, Jupiter, FL 33458

Jupiter, FlJupiter, FL 33458

Lat: 26.9373, Lon: -80.1101

Elevation: 12

Station Type: Davis VP 2

http://www.joe4speed.com/wxindex.php

Latest ConditionsUpdated 6:00:01 PM EDT Friday, Jul 3, 2015
Currently Today's Max Today's Min Today's Average
Temperature 86.8°F30.4°C 90.8°F32.7°C 74.4°F23.6°C 83.9°F28.8°C
Dew Point 76.7°F24.8°C 78.3°F25.7°C 71.2°F21.8°C 75.1°F23.9°C
Winds 4.6 mph SE7.4 kmh SE 9.2 mph E14.8 kmh E - 3.2 mph 5.1 kmh
Wind Gusts 9.2 mph14.8 kmh 13.8 mph22.2 kmh - -
Humidity 72% 91% 64% 76%
Pressure 30.07 in1018.3 mb 30.10 in1019.3 mb 30.05 in1017.6 mb -
Hour Temp Dew Point Humidity Winds Wind Gusts Pressure Precip Precip Rate Daily Precip Total
06:00 PM 86.8°F30.4°C 76.7°F24.8°C 72% 4.6 mph SE7.4 kmh SE 9.2 mph14.8 kmh 30.07 in1018.3 mb - 0.00 in0.0 mm 0.00 in0.0 mm
05:50 PM 87.0°F30.6°C 76.5°F24.7°C 71% 4.6 mph SSE7.4 kmh SSE 8.1 mph13.0 kmh 30.07 in1018.3 mb - 0.00 in0.0 mm 0.00 in0.0 mm
05:40 PM 87.4°F30.8°C 76.9°F24.9°C 71% 4.6 mph SE7.4 kmh SE 4.6 mph7.4 kmh 30.07 in1018.3 mb - 0.00 in0.0 mm 0.00 in0.0 mm
05:30 PM 87.7°F30.9°C 76.7°F24.8°C 70% 4.6 mph S7.4 kmh S 8.1 mph13.0 kmh 30.07 in1018.3 mb - 0.00 in0.0 mm 0.00 in0.0 mm
05:20 PM 88.0°F31.1°C 76.6°F24.8°C 69% 6.9 mph SE11.1 kmh SE 8.1 mph13.0 kmh 30.07 in1018.3 mb - 0.00 in0.0 mm 0.00 in0.0 mm
05:10 PM 88.4°F31.3°C 76.5°F24.7°C 68% 6.9 mph SE11.1 kmh SE 11.5 mph18.5 kmh 30.06 in1017.9 mb - 0.00 in0.0 mm 0.00 in0.0 mm
05:00 PM 88.8°F31.6°C 76.9°F24.9°C 68% 8.1 mph ESE13.0 kmh ESE 11.5 mph18.5 kmh 30.06 in1017.9 mb - 0.00 in0.0 mm 0.00 in0.0 mm
04:50 PM 89.2°F31.8°C 76.8°F24.9°C 67% 8.1 mph SE13.0 kmh SE 12.7 mph20.4 kmh 30.06 in1017.9 mb - 0.00 in0.0 mm 0.00 in0.0 mm
04:40 PM 88.9°F31.6°C 77.0°F25.0°C 68% 6.9 mph SE11.1 kmh SE 8.1 mph13.0 kmh 30.06 in1017.9 mb - 0.00 in0.0 mm 0.00 in0.0 mm
04:30 PM 89.2°F31.8°C 77.3°F25.2°C 68% 6.9 mph SSE11.1 kmh SSE 8.1 mph13.0 kmh 30.07 in1018.3 mb - 0.00 in0.0 mm 0.00 in0.0 mm
04:20 PM 89.6°F32.0°C 77.6°F25.3°C 68% 6.9 mph SE11.1 kmh SE 11.5 mph18.5 kmh 30.06 in1017.9 mb - 0.00 in0.0 mm 0.00 in0.0 mm
04:10 PM 90.0°F32.2°C 77.1°F25.1°C 66% 8.1 mph E13.0 kmh E 13.8 mph22.2 kmh 30.06 in1017.9 mb - 0.00 in0.0 mm 0.00 in0.0 mm
04:00 PM 89.5°F31.9°C 76.6°F24.8°C 66% 5.8 mph SE9.3 kmh SE 8.1 mph13.0 kmh 30.07 in1018.3 mb - 0.00 in0.0 mm 0.00 in0.0 mm
03:50 PM 89.6°F32.0°C 76.8°F24.9°C 66% 5.8 mph E9.3 kmh E 9.2 mph14.8 kmh 30.06 in1017.9 mb - 0.00 in0.0 mm 0.00 in0.0 mm
03:40 PM 90.0°F32.2°C 78.0°F25.6°C 68% 8.1 mph SE13.0 kmh SE 11.5 mph18.5 kmh 30.06 in1017.9 mb - 0.00 in0.0 mm 0.00 in0.0 mm
03:30 PM 89.9°F32.2°C 77.1°F25.1°C 66% 8.1 mph E13.0 kmh E 11.5 mph18.5 kmh 30.06 in1017.9 mb - 0.00 in0.0 mm 0.00 in0.0 mm
03:20 PM 89.2°F31.8°C 76.8°F24.9°C 67% 6.9 mph E11.1 kmh E 10.4 mph16.7 kmh 30.06 in1017.9 mb - 0.00 in0.0 mm 0.00 in0.0 mm
03:10 PM 89.6°F32.0°C 77.2°F25.1°C 67% 8.1 mph SE13.0 kmh SE 12.7 mph20.4 kmh 30.07 in1018.3 mb - 0.00 in0.0 mm 0.00 in0.0 mm
03:00 PM 89.6°F32.0°C 77.2°F25.1°C 67% 5.8 mph SE9.3 kmh SE 8.1 mph13.0 kmh 30.07 in1018.3 mb - 0.00 in0.0 mm 0.00 in0.0 mm
02:50 PM 89.7°F32.1°C 77.3°F25.2°C 67% 5.8 mph SE9.3 kmh SE 8.1 mph13.0 kmh 30.07 in1018.3 mb - 0.00 in0.0 mm 0.00 in0.0 mm
02:40 PM 90.3°F32.4°C 77.4°F25.2°C 66% 6.9 mph ESE11.1 kmh ESE 11.5 mph18.5 kmh 30.07 in1018.3 mb - 0.00 in0.0 mm 0.00 in0.0 mm
02:30 PM 90.3°F32.4°C 77.8°F25.4°C 67% 6.9 mph E11.1 kmh E 10.4 mph16.7 kmh 30.07 in1018.3 mb - 0.00 in0.0 mm 0.00 in0.0 mm
02:20 PM 90.0°F32.2°C 77.5°F25.3°C 67% 8.1 mph ESE13.0 kmh ESE 12.7 mph20.4 kmh 30.07 in1018.3 mb - 0.00 in0.0 mm 0.00 in0.0 mm
02:10 PM 90.6°F32.6°C 77.7°F25.4°C 66% 6.9 mph SE11.1 kmh SE 11.5 mph18.5 kmh 30.07 in1018.3 mb - 0.00 in0.0 mm 0.00 in0.0 mm
02:00 PM 89.4°F31.9°C 77.0°F25.0°C 67% 8.1 mph ESE13.0 kmh ESE 10.4 mph16.7 kmh 30.08 in1018.6 mb - 0.00 in0.0 mm 0.00 in0.0 mm
01:50 PM 90.8°F32.7°C 77.4°F25.2°C 65% 9.2 mph E14.8 kmh E 12.7 mph20.4 kmh 30.09 in1019.0 mb - 0.00 in0.0 mm 0.00 in0.0 mm
01:40 PM 90.2°F32.3°C 77.3°F25.2°C 66% 6.9 mph ESE11.1 kmh ESE 11.5 mph18.5 kmh 30.09 in1019.0 mb - 0.00 in0.0 mm 0.00 in0.0 mm
01:30 PM 89.6°F32.0°C 77.2°F25.1°C 67% 8.1 mph ESE13.0 kmh ESE 11.5 mph18.5 kmh 30.10 in1019.3 mb - 0.00 in0.0 mm 0.00 in0.0 mm
01:20 PM 90.1°F32.3°C 76.3°F24.6°C 64% 5.8 mph SE9.3 kmh SE 8.1 mph13.0 kmh 30.09 in1019.0 mb - 0.00 in0.0 mm 0.00 in0.0 mm
01:10 PM 90.6°F32.6°C 77.7°F25.4°C 66% 4.6 mph ESE7.4 kmh ESE 10.4 mph16.7 kmh 30.09 in1019.0 mb - 0.00 in0.0 mm 0.00 in0.0 mm
01:00 PM 90.4°F32.4°C 76.5°F24.7°C 64% 5.8 mph SSE9.3 kmh SSE 11.5 mph18.5 kmh 30.09 in1019.0 mb - 0.00 in0.0 mm 0.00 in0.0 mm
12:50 PM 90.3°F32.4°C 77.0°F25.0°C 65% 6.9 mph SE11.1 kmh SE 11.5 mph18.5 kmh 30.10 in1019.3 mb - 0.00 in0.0 mm 0.00 in0.0 mm
12:40 PM 90.0°F32.2°C 78.0°F25.6°C 68% 5.8 mph SE9.3 kmh SE 9.2 mph14.8 kmh 30.10 in1019.3 mb - 0.00 in0.0 mm 0.00 in0.0 mm
12:30 PM 90.8°F32.7°C 77.8°F25.4°C 66% 8.1 mph SE13.0 kmh SE 11.5 mph18.5 kmh 30.10 in1019.3 mb - 0.00 in0.0 mm 0.00 in0.0 mm
12:20 PM 90.3°F32.4°C 77.4°F25.2°C 66% 5.8 mph ESE9.3 kmh ESE 10.4 mph16.7 kmh 30.10 in1019.3 mb - 0.00 in0.0 mm 0.00 in0.0 mm
12:10 PM 90.2°F32.3°C 77.3°F25.2°C 66% 5.8 mph E9.3 kmh E 6.9 mph11.1 kmh 30.10 in1019.3 mb - 0.00 in0.0 mm 0.00 in0.0 mm
12:00 PM 89.6°F32.0°C 77.2°F25.1°C 67% 4.6 mph ESE7.4 kmh ESE 8.1 mph13.0 kmh 30.10 in1019.3 mb - 0.00 in0.0 mm 0.00 in0.0 mm
11:50 AM 89.8°F32.1°C 77.4°F25.2°C 67% 5.8 mph E9.3 kmh E 9.2 mph14.8 kmh 30.10 in1019.3 mb - 0.00 in0.0 mm 0.00 in0.0 mm
11:40 AM 90.1°F32.3°C 77.2°F25.1°C 66% 6.9 mph SE11.1 kmh SE 11.5 mph18.5 kmh 30.10 in1019.3 mb - 0.00 in0.0 mm 0.00 in0.0 mm
11:30 AM 89.8°F32.1°C 77.4°F25.2°C 67% 3.5 mph SE5.6 kmh SE 8.1 mph13.0 kmh 30.10 in1019.3 mb - 0.00 in0.0 mm 0.00 in0.0 mm
11:20 AM 89.5°F31.9°C 77.5°F25.3°C 68% 5.8 mph SE9.3 kmh SE 6.9 mph11.1 kmh 30.10 in1019.3 mb - 0.00 in0.0 mm 0.00 in0.0 mm
11:10 AM 89.9°F32.2°C 78.3°F25.7°C 69% 5.8 mph ESE9.3 kmh ESE 9.2 mph14.8 kmh 30.09 in1019.0 mb - 0.00 in0.0 mm 0.00 in0.0 mm
11:00 AM 89.9°F32.2°C 77.5°F25.3°C 67% 8.1 mph SE13.0 kmh SE 9.2 mph14.8 kmh 30.09 in1019.0 mb - 0.00 in0.0 mm 0.00 in0.0 mm
10:50 AM 89.9°F32.2°C 77.5°F25.3°C 67% Calm Calm -- 30.09 in1019.0 mb - 0.00 in0.0 mm 0.00 in0.0 mm
10:40 AM 89.2°F31.8°C 77.3°F25.2°C 68% Calm Calm -- 30.09 in1019.0 mb - 0.00 in0.0 mm 0.00 in0.0 mm
10:30 AM 88.9°F31.6°C 76.9°F24.9°C 68% Calm Calm -- 30.09 in1019.0 mb - 0.00 in0.0 mm 0.00 in0.0 mm
10:20 AM 88.7°F31.5°C 77.2°F25.1°C 69% Calm Calm -- 30.09 in1019.0 mb - 0.00 in0.0 mm 0.00 in0.0 mm
10:10 AM 88.6°F31.4°C 77.6°F25.3°C 70% Calm Calm -- 30.09 in1019.0 mb - 0.00 in0.0 mm 0.00 in0.0 mm
10:00 AM 88.6°F31.4°C 77.5°F25.3°C 70% Calm Calm -- 30.09 in1019.0 mb - 0.00 in0.0 mm 0.00 in0.0 mm
09:50 AM 87.3°F30.7°C 76.7°F24.8°C 71% Calm Calm -- 30.09 in1019.0 mb - 0.00 in0.0 mm 0.00 in0.0 mm
09:40 AM 87.4°F30.8°C 75.6°F24.2°C 68% Calm Calm -- 30.09 in1019.0 mb - 0.00 in0.0 mm 0.00 in0.0 mm
09:30 AM 88.0°F31.1°C 77.0°F25.0°C 70% Calm Calm -- 30.09 in1019.0 mb - 0.00 in0.0 mm 0.00 in0.0 mm
09:20 AM 86.9°F30.5°C 77.2°F25.1°C 73% Calm Calm -- 30.09 in1019.0 mb - 0.00 in0.0 mm 0.00 in0.0 mm
09:10 AM 85.3°F29.6°C 76.9°F24.9°C 76% Calm Calm -- 30.10 in1019.3 mb - 0.00 in0.0 mm 0.00 in0.0 mm
09:00 AM 83.3°F28.5°C 76.9°F24.9°C 81% Calm Calm -- 30.09 in1019.0 mb - 0.00 in0.0 mm 0.00 in0.0 mm
08:52 AM 78.1°F25.6°C 75.2°F24.0°C 91% Calm Calm -- 30.09 in1019.0 mb - 0.00 in0.0 mm 0.00 in0.0 mm
08:00 AM 77.5°F25.3°C 74.7°F23.7°C 91% Calm Calm -- 30.09 in1019.0 mb - 0.00 in0.0 mm 0.00 in0.0 mm
07:54 AM 74.8°F23.8°C 72.0°F22.2°C 91% Calm Calm -- 30.08 in1018.6 mb - 0.00 in0.0 mm 0.00 in0.0 mm
07:00 AM 74.6°F23.7°C 71.5°F21.9°C 90% Calm Calm -- 30.08 in1018.6 mb - 0.00 in0.0 mm 0.00 in0.0 mm
06:50 AM 74.4°F23.6°C 71.3°F21.8°C 90% Calm Calm -- 30.07 in1018.3 mb - 0.00 in0.0 mm 0.00 in0.0 mm
06:40 AM 74.4°F23.6°C 71.3°F21.8°C 90% Calm Calm -- 30.07 in1018.3 mb - 0.00 in0.0 mm 0.00 in0.0 mm
06:30 AM 74.5°F23.6°C 71.4°F21.9°C 90% Calm Calm -- 30.07 in1018.3 mb - 0.00 in0.0 mm 0.00 in0.0 mm
06:20 AM 74.7°F23.7°C 71.5°F21.9°C 90% Calm Calm -- 30.07 in1018.3 mb - 0.00 in0.0 mm 0.00 in0.0 mm
06:10 AM 74.7°F23.7°C 71.6°F22.0°C 90% Calm Calm -- 30.06 in1017.9 mb - 0.00 in0.0 mm 0.00 in0.0 mm
06:00 AM 74.8°F23.8°C 71.6°F22.0°C 90% Calm Calm -- 30.06 in1017.9 mb - 0.00 in0.0 mm 0.00 in0.0 mm
05:50 AM 74.7°F23.7°C 71.2°F21.8°C 89% Calm Calm -- 30.05 in1017.6 mb - 0.00 in0.0 mm 0.00 in0.0 mm
05:40 AM 74.7°F23.7°C 71.3°F21.8°C 89% Calm Calm -- 30.05 in1017.6 mb - 0.00 in0.0 mm 0.00 in0.0 mm
05:30 AM 74.9°F23.8°C 71.4°F21.9°C 89% Calm Calm -- 30.05 in1017.6 mb - 0.00 in0.0 mm 0.00 in0.0 mm
05:20 AM 75.0°F23.9°C 71.5°F21.9°C 89% Calm Calm -- 30.05 in1017.6 mb - 0.00 in0.0 mm 0.00 in0.0 mm
05:10 AM 75.1°F23.9°C 71.6°F22.0°C 89% Calm Calm -- 30.05 in1017.6 mb - 0.00 in0.0 mm 0.00 in0.0 mm
05:00 AM 75.1°F23.9°C 71.7°F22.1°C 89% Calm Calm -- 30.05 in1017.6 mb - 0.00 in0.0 mm 0.00 in0.0 mm
04:50 AM 75.2°F24.0°C 71.4°F21.9°C 88% Calm Calm -- 30.05 in1017.6 mb - 0.00 in0.0 mm 0.00 in0.0 mm
04:40 AM 75.3°F24.1°C 71.5°F21.9°C 88% Calm Calm -- 30.05 in1017.6 mb - 0.00 in0.0 mm 0.00 in0.0 mm
04:30 AM 75.4°F24.1°C 71.6°F22.0°C 88% Calm Calm -- 30.05 in1017.6 mb - 0.00 in0.0 mm 0.00 in0.0 mm
04:20 AM 75.5°F24.2°C 71.7°F22.1°C 88% Calm Calm -- 30.05 in1017.6 mb - 0.00 in0.0 mm 0.00 in0.0 mm
04:10 AM 75.7°F24.3°C 71.9°F22.2°C 88% 1.2 mph NW1.9 kmh NW 1.2 mph1.9 kmh 30.05 in1017.6 mb - 0.00 in0.0 mm 0.00 in0.0 mm
04:00 AM 75.8°F24.3°C 71.7°F22.1°C 87% Calm Calm 2.3 mph3.7 kmh 30.05 in1017.6 mb - 0.00 in0.0 mm 0.00 in0.0 mm
03:50 AM 76.0°F24.4°C 71.8°F22.1°C 87% 1.2 mph NW1.9 kmh NW 1.2 mph1.9 kmh 30.05 in1017.6 mb - 0.00 in0.0 mm 0.00 in0.0 mm
03:40 AM 76.3°F24.6°C 71.8°F22.1°C 86% 3.5 mph NW5.6 kmh NW 4.6 mph7.4 kmh 30.05 in1017.6 mb - 0.00 in0.0 mm 0.00 in0.0 mm
03:30 AM 76.5°F24.7°C 72.0°F22.2°C 86% 2.3 mph NW3.7 kmh NW 3.5 mph5.6 kmh 30.05 in1017.6 mb - 0.00 in0.0 mm 0.00 in0.0 mm
03:20 AM 76.9°F24.9°C 72.0°F22.2°C 85% Calm Calm -- 30.05 in1017.6 mb - 0.00 in0.0 mm 0.00 in0.0 mm
03:10 AM 77.3°F25.2°C 72.1°F22.3°C 84% 1.2 mph NW1.9 kmh NW 1.2 mph1.9 kmh 30.05 in1017.6 mb - 0.00 in0.0 mm 0.00 in0.0 mm
03:00 AM 77.8°F25.4°C 72.5°F22.5°C 84% Calm Calm -- 30.06 in1017.9 mb - 0.00 in0.0 mm 0.00 in0.0 mm
02:50 AM 78.2°F25.7°C 72.6°F22.6°C 83% Calm Calm -- 30.06 in1017.9 mb - 0.00 in0.0 mm 0.00 in0.0 mm
02:40 AM 78.6°F25.9°C 73.0°F22.8°C 83% Calm Calm -- 30.07 in1018.3 mb - 0.00 in0.0 mm 0.00 in0.0 mm
02:30 AM 79.3°F26.3°C 73.3°F22.9°C 82% 2.3 mph NW3.7 kmh NW 4.6 mph7.4 kmh 30.07 in1018.3 mb - 0.00 in0.0 mm 0.00 in0.0 mm
02:20 AM 79.7°F26.5°C 73.3°F22.9°C 81% 1.2 mph WSW1.9 kmh WSW 3.5 mph5.6 kmh 30.07 in1018.3 mb - 0.00 in0.0 mm 0.00 in0.0 mm
02:10 AM 80.1°F26.7°C 73.4°F23.0°C 80% Calm Calm -- 30.07 in1018.3 mb - 0.00 in0.0 mm 0.00 in0.0 mm
02:00 AM 80.6°F27.0°C 73.4°F23.0°C 79% Calm Calm 1.2 mph1.9 kmh 30.07 in1018.3 mb - 0.00 in0.0 mm 0.00 in0.0 mm
01:50 AM 81.0°F27.2°C 73.9°F23.3°C 79% Calm Calm -- 30.08 in1018.6 mb - 0.00 in0.0 mm 0.00 in0.0 mm
01:40 AM 81.4°F27.4°C 73.9°F23.3°C 78% Calm Calm -- 30.08 in1018.6 mb - 0.00 in0.0 mm 0.00 in0.0 mm
01:30 AM 81.6°F27.6°C 74.0°F23.3°C 78% 1.2 mph SSE1.9 kmh SSE 3.5 mph5.6 kmh 30.07 in1018.3 mb - 0.00 in0.0 mm 0.00 in0.0 mm
01:20 AM 81.7°F27.6°C 74.2°F23.4°C 78% 1.2 mph SE1.9 kmh SE 3.5 mph5.6 kmh 30.08 in1018.6 mb - 0.00 in0.0 mm 0.00 in0.0 mm
01:10 AM 81.8°F27.7°C 74.3°F23.5°C 78% 1.2 mph SE1.9 kmh SE 3.5 mph5.6 kmh 30.08 in1018.6 mb - 0.00 in0.0 mm 0.00 in0.0 mm
01:00 AM 81.9°F27.7°C 74.0°F23.3°C 77% 2.3 mph SE3.7 kmh SE 3.5 mph5.6 kmh 30.09 in1019.0 mb - 0.00 in0.0 mm 0.00 in0.0 mm
12:50 AM 81.9°F27.7°C 74.0°F23.3°C 77% 2.3 mph SE3.7 kmh SE 4.6 mph7.4 kmh 30.09 in1019.0 mb - 0.00 in0.0 mm 0.00 in0.0 mm
12:40 AM 82.0°F27.8°C 74.1°F23.4°C 77% 3.5 mph SE5.6 kmh SE 8.1 mph13.0 kmh 30.09 in1019.0 mb - 0.00 in0.0 mm 0.00 in0.0 mm
12:30 AM 82.0°F27.8°C 74.1°F23.4°C 77% 3.5 mph SE5.6 kmh SE 9.2 mph14.8 kmh 30.09 in1019.0 mb - 0.00 in0.0 mm 0.00 in0.0 mm
12:20 AM 82.0°F27.8°C 74.1°F23.4°C 77% 5.8 mph SE9.3 kmh SE 10.4 mph16.7 kmh 30.09 in1019.0 mb - 0.00 in0.0 mm 0.00 in0.0 mm
12:10 AM 82.1°F27.8°C 74.2°F23.4°C 77% 3.5 mph SE5.6 kmh SE 4.6 mph7.4 kmh 30.10 in1019.3 mb - 0.00 in0.0 mm 0.00 in0.0 mm
12:00 AM 82.1°F27.8°C 74.2°F23.4°C 77% 3.5 mph SE5.6 kmh SE 8.1 mph13.0 kmh 30.10 in1019.3 mb - 0.00 in0.0 mm 0.00 in0.0 mm